createdAt,value
2019-01-22T00:00:26.584Z,82.16
2019-01-22T00:02:54.246Z,81.81
2019-01-22T00:05:21.731Z,82.13
2019-01-22T00:07:49.193Z,82.10
2019-01-22T00:10:16.681Z,81.78
2019-01-22T00:12:44.183Z,81.62
2019-01-22T00:15:11.797Z,81.73
2019-01-22T00:17:39.602Z,81.66
2019-01-22T00:20:07.683Z,81.56
2019-01-22T00:22:35.642Z,82.10
2019-01-22T00:25:03.859Z,82.01
2019-01-22T00:27:31.354Z,82.45
2019-01-22T00:29:58.949Z,82.73
2019-01-22T00:32:26.610Z,82.86
2019-01-22T00:34:54.073Z,82.73
2019-01-22T00:37:21.475Z,81.87
2019-01-22T00:39:48.918Z,82.18
2019-01-22T00:42:16.379Z,82.36
2019-01-22T00:44:43.866Z,82.48
2019-01-22T00:47:11.252Z,82.43
2019-01-22T00:49:38.982Z,83.04
2019-01-22T00:52:06.419Z,83.08
2019-01-22T00:54:33.894Z,82.80
2019-01-22T00:57:01.382Z,82.49
2019-01-22T00:59:28.815Z,82.22
2019-01-22T01:01:56.239Z,82.12
2019-01-22T01:04:23.618Z,82.59
2019-01-22T01:06:51.091Z,82.68
2019-01-22T01:09:18.458Z,82.89
2019-01-22T01:11:45.922Z,82.91
2019-01-22T01:14:13.298Z,82.22
2019-01-22T01:16:40.795Z,82.10
2019-01-22T01:19:08.586Z,82.29
2019-01-22T01:21:35.946Z,81.36
2019-01-22T01:24:03.590Z,81.45
2019-01-22T01:26:31.062Z,81.29
2019-01-22T01:28:58.438Z,80.23
2019-01-22T01:31:25.791Z,79.82
2019-01-22T01:33:53.150Z,80.38
2019-01-22T01:36:20.545Z,80.36
2019-01-22T01:38:47.994Z,80.01
2019-01-22T01:41:15.479Z,80.21
2019-01-22T01:43:42.969Z,79.94
2019-01-22T01:46:10.445Z,80.18
2019-01-22T01:48:37.901Z,80.26
2019-01-22T01:51:05.604Z,80.39
2019-01-22T01:53:33.063Z,80.57
2019-01-22T01:56:00.565Z,81.09
2019-01-22T01:58:28.226Z,81.22
2019-01-22T02:00:55.585Z,81.49
2019-01-22T02:03:22.934Z,81.08
2019-01-22T02:05:50.302Z,80.26
2019-01-22T02:08:17.674Z,80.78
2019-01-22T02:10:45.247Z,81.04
2019-01-22T02:13:30.100Z,81.33
2019-01-22T02:16:21.735Z,81.23
2019-01-22T02:18:52.259Z,81.27
2019-01-22T02:21:42.561Z,80.21
2019-01-22T02:24:38.729Z,79.73
2019-01-22T02:27:25.702Z,80.63
2019-01-22T02:30:12.650Z,81.11
2019-01-22T02:32:46.426Z,81.28
2019-01-22T02:35:33.147Z,81.26
2019-01-22T02:38:29.375Z,81.17
2019-01-22T02:41:02.725Z,81.39
2019-01-22T02:43:41.173Z,81.23
2019-01-22T02:46:20.322Z,81.32
2019-01-22T02:49:16.474Z,81.07
2019-01-22T02:52:12.435Z,80.98
2019-01-22T02:54:59.413Z,80.85
2019-01-22T02:57:55.192Z,80.85
2019-01-22T03:00:42.160Z,81.10
2019-01-22T03:03:23.988Z,81.09
2019-01-22T03:05:54.631Z,80.87
2019-01-22T03:08:40.295Z,80.85
2019-01-22T03:11:27.270Z,80.04
2019-01-22T03:14:20.261Z,78.98
2019-01-22T03:17:05.929Z,79.43
2019-01-22T03:19:51.499Z,80.51
2019-01-22T03:22:38.517Z,80.94
2019-01-22T03:25:24.308Z,80.85
2019-01-22T03:27:53.770Z,81.02
2019-01-22T03:30:46.383Z,81.06
2019-01-22T03:33:33.352Z,80.68
2019-01-22T03:36:23.340Z,80.85
2019-01-22T03:38:54.456Z,81.15
2019-01-22T03:41:57.052Z,80.74
2019-01-22T03:44:55.977Z,80.33
2019-01-22T03:47:30.454Z,80.16
2019-01-22T03:50:17.417Z,80.18
2019-01-22T03:53:01.302Z,80.05
2019-01-22T03:55:51.163Z,79.89
2019-01-22T03:58:18.558Z,79.58
2019-01-22T04:00:48.348Z,79.61
2019-01-22T04:03:16.833Z,79.58
2019-01-22T04:05:45.606Z,79.37
2019-01-22T04:08:12.975Z,79.92
2019-01-22T04:10:42.959Z,80.22
2019-01-22T04:13:10.446Z,80.37
2019-01-22T04:15:39.109Z,80.42
2019-01-22T04:18:06.498Z,80.49
2019-01-22T04:20:34.103Z,80.44
2019-01-22T04:23:06.758Z,80.38
2019-01-22T04:25:40.691Z,80.71
2019-01-22T04:28:15.250Z,81.11
2019-01-22T04:31:20.560Z,81.44
2019-01-22T04:34:09.526Z,81.42
2019-01-22T04:37:11.558Z,81.69
2019-01-22T04:40:04.384Z,81.71
2019-01-22T04:42:54.134Z,81.75
2019-01-22T04:45:41.005Z,81.97
2019-01-22T04:48:33.941Z,81.94
2019-01-22T04:51:19.311Z,82.03
2019-01-22T04:53:54.032Z,82.26
2019-01-22T04:56:34.771Z,82.46
2019-01-22T04:59:10.351Z,82.99
2019-01-22T05:02:09.452Z,82.93
2019-01-22T05:04:45.802Z,83.15
2019-01-22T05:07:16.466Z,83.19
2019-01-22T05:10:12.580Z,83.13
2019-01-22T05:12:54.671Z,83.09
2019-01-22T05:15:45.167Z,83.01
2019-01-22T05:18:32.139Z,83.04
2019-01-22T05:21:17.846Z,82.99
2019-01-22T05:23:57.926Z,83.23
2019-01-22T05:26:39.720Z,83.55
2019-01-22T05:29:26.596Z,83.39
2019-01-22T05:32:00.847Z,83.27
2019-01-22T05:34:56.501Z,83.22
2019-01-22T05:37:46.553Z,83.22
2019-01-22T05:40:45.627Z,83.14
2019-01-22T05:43:44.620Z,83.04
2019-01-22T05:46:23.681Z,83.11
2019-01-22T05:49:10.592Z,82.97
2019-01-22T05:51:46.139Z,82.93
2019-01-22T05:54:29.178Z,82.75
2019-01-22T05:57:17.587Z,82.91
2019-01-22T05:59:51.327Z,81.83
2019-01-22T06:02:21.426Z,81.80
2019-01-22T06:05:06.634Z,82.23
2019-01-22T06:07:55.686Z,82.51
2019-01-22T06:10:45.417Z,82.19
2019-01-22T06:13:24.383Z,82.19
2019-01-22T06:16:04.723Z,82.12
2019-01-22T06:18:54.196Z,82.31
2019-01-22T06:21:56.218Z,82.32
2019-01-22T06:24:35.730Z,82.34
2019-01-22T06:27:08.205Z,82.26
2019-01-22T06:29:45.123Z,82.27
2019-01-22T06:32:19.162Z,82.50
2019-01-22T06:34:54.955Z,82.21
2019-01-22T06:37:25.633Z,82.02
2019-01-22T06:39:55.351Z,82.14
2019-01-22T06:42:34.175Z,82.10
2019-01-22T06:45:15.229Z,82.13
2019-01-22T06:48:00.935Z,82.12
2019-01-22T06:50:53.883Z,82.06
2019-01-22T06:53:33.032Z,82.07
2019-01-22T06:56:22.707Z,82.14
2019-01-22T06:58:57.356Z,82.18
2019-01-22T07:01:38.630Z,82.05
2019-01-22T07:04:28.501Z,81.98
2019-01-22T07:07:18.160Z,81.70
2019-01-22T07:10:00.291Z,81.63
2019-01-22T07:12:46.567Z,81.67
2019-01-22T07:15:39.517Z,81.91
2019-01-22T07:18:32.462Z,82.10
2019-01-22T07:21:26.620Z,81.78
2019-01-22T07:24:12.394Z,81.09
2019-01-22T07:27:02.079Z,81.58
2019-01-22T07:29:35.637Z,81.73
2019-01-22T07:32:31.514Z,81.57
2019-01-22T07:35:20.557Z,81.16
2019-01-22T07:38:07.482Z,81.39
2019-01-22T07:40:55.733Z,80.45
2019-01-22T07:43:54.846Z,80.78
2019-01-22T07:46:38.075Z,81.07
2019-01-22T07:49:12.218Z,80.76
2019-01-22T07:52:08.154Z,81.22
2019-01-22T07:54:53.656Z,81.19
2019-01-22T07:57:41.082Z,80.72
2019-01-22T08:00:13.636Z,80.97
2019-01-22T08:02:54.156Z,80.76
2019-01-22T08:05:42.891Z,80.96
2019-01-22T08:08:43.075Z,80.65
2019-01-22T08:11:28.757Z,80.42
2019-01-22T08:14:14.531Z,80.21
2019-01-22T08:17:14.039Z,80.10
2019-01-22T08:19:45.976Z,80.33
2019-01-22T08:22:31.679Z,80.18
2019-01-22T08:25:07.082Z,80.23
2019-01-22T08:27:47.516Z,80.02
2019-01-22T08:30:43.327Z,78.86
2019-01-22T08:33:15.397Z,79.50
2019-01-22T08:36:17.597Z,80.25
2019-01-22T08:39:04.910Z,80.22
2019-01-22T08:41:51.785Z,80.13
2019-01-22T08:44:32.835Z,79.84
2019-01-22T08:47:22.857Z,79.56
2019-01-22T08:50:09.701Z,79.71
2019-01-22T08:52:56.613Z,79.53
2019-01-22T08:55:42.275Z,79.29
2019-01-22T08:58:28.082Z,78.94
2019-01-22T09:01:13.690Z,78.75
2019-01-22T09:03:59.363Z,79.11
2019-01-22T09:06:45.161Z,78.35
2019-01-22T09:09:31.167Z,78.47
2019-01-22T09:12:16.709Z,78.65
2019-01-22T09:15:15.786Z,78.99
2019-01-22T09:18:17.866Z,79.03
2019-01-22T09:20:54.108Z,78.85
2019-01-22T09:23:40.967Z,78.39
2019-01-22T09:26:37.251Z,78.11
2019-01-22T09:29:11.723Z,77.81
2019-01-22T09:31:45.073Z,76.68
2019-01-22T09:34:32.123Z,77.37
2019-01-22T09:37:18.033Z,77.46
2019-01-22T09:39:45.491Z,76.50
2019-01-22T09:42:12.924Z,76.27
2019-01-22T09:44:40.608Z,76.36
2019-01-22T09:47:08.054Z,76.43
2019-01-22T09:49:35.486Z,76.30
2019-01-22T09:52:03.323Z,75.86
2019-01-22T09:54:30.726Z,75.37
2019-01-22T09:56:58.158Z,75.41
2019-01-22T09:59:25.518Z,73.97
2019-01-22T10:01:52.980Z,73.59
2019-01-22T10:04:20.469Z,72.93
2019-01-22T10:06:47.816Z,72.62
2019-01-22T10:09:15.185Z,72.80
2019-01-22T10:11:42.611Z,73.36
2019-01-22T10:14:10.066Z,74.41
2019-01-22T10:16:37.432Z,75.02
2019-01-22T10:19:04.866Z,74.84
2019-01-22T10:21:32.338Z,74.11
2019-01-22T10:23:59.722Z,73.98
2019-01-22T10:26:27.056Z,74.11
2019-01-22T10:28:54.438Z,73.96
2019-01-22T10:31:21.846Z,73.82
2019-01-22T10:33:49.203Z,74.24
2019-01-22T10:36:16.547Z,74.50
2019-01-22T10:38:44.026Z,73.71
2019-01-22T10:41:11.387Z,74.54
2019-01-22T10:43:38.798Z,74.06
2019-01-22T10:46:06.164Z,73.64
2019-01-22T10:48:33.559Z,74.06
2019-01-22T10:51:00.903Z,74.59
2019-01-22T10:53:28.295Z,74.38
2019-01-22T10:55:55.753Z,73.62
2019-01-22T10:58:23.111Z,72.72
2019-01-22T11:00:50.555Z,72.71
2019-01-22T11:03:17.955Z,71.99
2019-01-22T11:05:45.453Z,71.53
2019-01-22T11:08:13.092Z,71.93
2019-01-22T11:10:40.476Z,72.41
2019-01-22T11:13:07.849Z,72.63
2019-01-22T11:15:35.314Z,72.68
2019-01-22T11:18:03.137Z,73.34
2019-01-22T11:20:30.772Z,73.25
2019-01-22T11:22:58.195Z,73.65
2019-01-22T11:25:26.747Z,73.78
2019-01-22T11:27:54.131Z,74.58
2019-01-22T11:30:22.054Z,75.00
2019-01-22T11:32:49.537Z,74.30
2019-01-22T11:35:17.480Z,74.91
2019-01-22T11:37:44.914Z,74.23
2019-01-22T11:40:20.183Z,72.65
2019-01-22T11:42:48.002Z,72.54
2019-01-22T11:45:15.379Z,72.75
2019-01-22T11:47:42.766Z,72.39
2019-01-22T11:50:11.832Z,72.00
2019-01-22T11:52:39.211Z,72.00
2019-01-22T11:55:06.613Z,71.86
2019-01-22T11:57:33.985Z,71.60
2019-01-22T12:00:01.376Z,72.13
2019-01-22T12:02:32.113Z,72.30
2019-01-22T12:04:58.055Z,72.60
2019-01-22T12:07:25.423Z,71.46
2019-01-22T12:09:52.831Z,71.30
2019-01-22T12:12:20.293Z,71.17
2019-01-22T12:14:47.674Z,72.76
2019-01-22T12:17:15.045Z,73.22
2019-01-22T12:19:42.414Z,73.17
2019-01-22T12:22:09.811Z,72.89
2019-01-22T12:24:37.150Z,73.15
2019-01-22T12:27:04.870Z,73.17
2019-01-22T12:29:32.249Z,72.66
2019-01-22T12:31:59.639Z,72.24
2019-01-22T12:34:27.017Z,72.50
2019-01-22T12:36:54.369Z,72.91
2019-01-22T12:39:21.731Z,72.67
2019-01-22T12:41:49.167Z,72.38
2019-01-22T12:44:16.601Z,72.09
2019-01-22T12:46:43.981Z,72.64
2019-01-22T12:49:11.375Z,72.57
2019-01-22T12:51:38.739Z,72.37
2019-01-22T12:54:06.102Z,72.24
2019-01-22T12:56:33.499Z,71.79
2019-01-22T12:59:00.875Z,72.32
2019-01-22T13:01:28.371Z,72.69
2019-01-22T13:03:55.853Z,72.64
2019-01-22T13:06:23.277Z,73.07
2019-01-22T13:08:50.654Z,73.36
2019-01-22T13:11:17.998Z,73.36
2019-01-22T13:13:45.385Z,73.54
2019-01-22T13:16:12.804Z,72.49
2019-01-22T13:18:40.242Z,71.86
2019-01-22T13:21:07.609Z,72.47
2019-01-22T13:23:34.966Z,73.01
2019-01-22T13:26:02.455Z,72.61
2019-01-22T13:28:29.801Z,73.25
2019-01-22T13:30:57.154Z,72.41
2019-01-22T13:33:24.534Z,73.02
2019-01-22T13:35:52.186Z,73.18
2019-01-22T13:38:19.770Z,73.34
2019-01-22T13:40:47.119Z,73.10
2019-01-22T13:43:14.477Z,72.75
2019-01-22T13:45:41.878Z,71.74
2019-01-22T13:48:11.139Z,73.18
2019-01-22T13:50:38.637Z,74.07
2019-01-22T13:53:06.089Z,73.84
2019-01-22T13:55:34.510Z,73.53
2019-01-22T13:58:02.004Z,73.51
2019-01-22T14:00:29.403Z,73.07
2019-01-22T14:02:57.190Z,73.26
2019-01-22T14:05:24.666Z,73.23
2019-01-22T14:07:52.132Z,73.51
2019-01-22T14:10:19.518Z,73.67
2019-01-22T14:12:47.223Z,73.59
2019-01-22T14:15:16.148Z,73.91
2019-01-22T14:17:43.531Z,73.96
2019-01-22T14:20:11.235Z,73.93
2019-01-22T14:22:38.621Z,73.87
2019-01-22T14:25:07.174Z,73.81
2019-01-22T14:27:34.956Z,74.72
2019-01-22T14:30:02.302Z,74.51
2019-01-22T14:32:29.742Z,74.91
2019-01-22T14:34:57.154Z,74.61
2019-01-22T14:37:24.508Z,74.96
2019-01-22T14:39:51.856Z,75.11
2019-01-22T14:42:19.345Z,74.99
2019-01-22T14:44:46.711Z,75.55
2019-01-22T14:47:14.106Z,75.26
2019-01-22T14:49:41.471Z,75.28
2019-01-22T14:52:08.805Z,75.71
2019-01-22T14:54:36.226Z,75.76
2019-01-22T14:57:03.714Z,75.64
2019-01-22T14:59:31.072Z,75.46
2019-01-22T15:01:58.750Z,75.26
2019-01-22T15:04:26.234Z,74.79
2019-01-22T15:06:53.647Z,74.86
2019-01-22T15:09:21.056Z,74.62
2019-01-22T15:11:48.437Z,74.63
2019-01-22T15:14:15.862Z,74.57
2019-01-22T15:16:43.260Z,74.68
2019-01-22T15:19:10.871Z,74.60
2019-01-22T15:21:38.323Z,74.58
2019-01-22T15:24:05.746Z,74.00
2019-01-22T15:26:39.200Z,74.53
2019-01-22T15:29:02.457Z,74.48
2019-01-22T15:31:29.910Z,74.60
2019-01-22T15:33:57.344Z,74.36
2019-01-22T15:36:24.865Z,74.01
2019-01-22T15:38:52.238Z,73.82
2019-01-22T15:41:19.643Z,73.72
2019-01-22T15:43:47.168Z,73.93
2019-01-22T15:46:14.527Z,73.97
2019-01-22T15:48:41.932Z,74.40
2019-01-22T15:51:09.647Z,74.33
2019-01-22T15:53:37.015Z,74.37
2019-01-22T15:56:04.610Z,74.42
2019-01-22T15:58:31.968Z,74.50
2019-01-22T16:00:59.338Z,74.54
2019-01-22T16:03:26.697Z,74.76
2019-01-22T16:05:54.210Z,75.39
2019-01-22T16:08:21.583Z,75.66
2019-01-22T16:10:49.242Z,75.51
2019-01-22T16:13:16.659Z,75.56
2019-01-22T16:15:44.039Z,75.79
2019-01-22T16:18:11.436Z,76.21
2019-01-22T16:20:38.786Z,76.52
2019-01-22T16:23:06.209Z,76.88
2019-01-22T16:25:34.965Z,76.85
2019-01-22T16:28:02.459Z,76.51
2019-01-22T16:30:30.816Z,75.91
2019-01-22T16:32:58.303Z,75.59
2019-01-22T16:35:26.273Z,75.90
2019-01-22T16:37:53.682Z,75.22
2019-01-22T16:40:21.171Z,74.98
2019-01-22T16:42:48.786Z,75.14
2019-01-22T16:45:20.668Z,75.83
2019-01-22T16:47:48.126Z,75.26
2019-01-22T16:50:15.555Z,74.71
2019-01-22T16:52:42.964Z,74.59
2019-01-22T16:55:12.160Z,75.05
2019-01-22T16:57:39.691Z,75.21
2019-01-22T17:00:09.207Z,76.14
2019-01-22T17:02:40.047Z,76.02
2019-01-22T17:05:07.651Z,76.30
2019-01-22T17:07:35.091Z,76.76
2019-01-22T17:10:03.219Z,77.03
2019-01-22T17:12:30.636Z,76.58
2019-01-22T17:14:58.029Z,76.29
2019-01-22T17:17:25.498Z,75.62
2019-01-22T17:19:52.988Z,75.23
2019-01-22T17:22:20.510Z,75.59
2019-01-22T17:24:47.911Z,77.03
2019-01-22T17:27:15.387Z,77.11
2019-01-22T17:29:42.808Z,77.66
2019-01-22T17:32:29.713Z,77.66
2019-01-22T17:35:00.669Z,77.54
2019-01-22T17:37:28.202Z,77.28
2019-01-22T17:39:55.704Z,77.09
2019-01-22T17:42:23.114Z,76.85
2019-01-22T17:44:50.603Z,76.96
2019-01-22T17:47:18.130Z,77.05
2019-01-22T17:49:45.487Z,76.62
2019-01-22T17:52:12.898Z,76.13
2019-01-22T17:54:40.459Z,75.66
2019-01-22T17:57:13.676Z,75.35
2019-01-22T17:59:37.132Z,75.75
2019-01-22T18:02:04.566Z,76.58
2019-01-22T18:04:32.079Z,76.00
2019-01-22T18:06:59.512Z,75.86
2019-01-22T18:09:27.046Z,76.24
2019-01-22T18:11:54.546Z,76.59
2019-01-22T18:14:22.091Z,76.94
2019-01-22T18:16:49.535Z,77.26
2019-01-22T18:19:16.931Z,78.24
2019-01-22T18:21:44.321Z,77.58
2019-01-22T18:24:11.731Z,78.16
2019-01-22T18:26:39.249Z,78.17
2019-01-22T18:29:06.727Z,77.83
2019-01-22T18:31:34.239Z,77.96
2019-01-22T18:34:01.622Z,78.37
2019-01-22T18:36:29.141Z,78.82
2019-01-22T18:38:56.603Z,78.61
2019-01-22T18:41:24.066Z,79.01
2019-01-22T18:43:51.493Z,78.80
2019-01-22T18:46:18.999Z,78.85
2019-01-22T18:48:46.475Z,78.96
2019-01-22T18:51:15.282Z,78.62
2019-01-22T18:53:42.795Z,78.54
2019-01-22T18:56:10.191Z,78.42
2019-01-22T18:58:37.629Z,78.79
2019-01-22T19:01:05.108Z,79.04
2019-01-22T19:03:32.494Z,78.89
2019-01-22T19:06:00.065Z,78.95
2019-01-22T19:08:27.492Z,79.22
2019-01-22T19:10:55.026Z,79.65
2019-01-22T19:13:22.460Z,80.22
2019-01-22T19:15:49.874Z,80.32
2019-01-22T19:18:17.387Z,80.14
2019-01-22T19:20:44.840Z,79.24
2019-01-22T19:23:12.280Z,79.40
2019-01-22T19:25:39.687Z,79.04
2019-01-22T19:28:07.130Z,78.48
2019-01-22T19:30:34.548Z,78.18
2019-01-22T19:33:02.026Z,78.50
2019-01-22T19:35:29.498Z,78.80
2019-01-22T19:37:57.342Z,78.74
2019-01-22T19:40:24.851Z,79.00
2019-01-22T19:42:52.304Z,79.26
2019-01-22T19:45:24.063Z,78.82
2019-01-22T19:47:51.559Z,78.45
2019-01-22T19:50:19.158Z,78.53
2019-01-22T19:52:46.618Z,78.93
2019-01-22T19:55:14.125Z,78.62
2019-01-22T19:57:41.656Z,78.38
2019-01-22T20:00:11.690Z,78.56
2019-01-22T20:02:39.180Z,78.73
2019-01-22T20:05:06.991Z,78.68
2019-01-22T20:07:34.487Z,78.93
2019-01-22T20:10:01.937Z,78.78
2019-01-22T20:12:29.456Z,78.44
2019-01-22T20:14:56.866Z,78.56
2019-01-22T20:17:24.411Z,78.94
2019-01-22T20:19:51.937Z,78.96
2019-01-22T20:22:19.475Z,78.73
2019-01-22T20:24:48.849Z,78.59
2019-01-22T20:27:16.266Z,78.51
2019-01-22T20:29:43.783Z,78.73
2019-01-22T20:32:11.200Z,78.40
2019-01-22T20:34:38.607Z,78.14
2019-01-22T20:37:06.098Z,78.23
2019-01-22T20:39:33.602Z,78.07
2019-01-22T20:42:00.986Z,77.97
2019-01-22T20:44:28.392Z,78.36
2019-01-22T20:46:55.830Z,78.74
2019-01-22T20:49:23.250Z,78.89
2019-01-22T20:51:50.770Z,78.92
2019-01-22T20:54:18.191Z,78.54
2019-01-22T20:56:45.712Z,78.34
2019-01-22T20:59:13.099Z,78.12
2019-01-22T21:01:40.586Z,78.04
2019-01-22T21:04:07.953Z,78.29
2019-01-22T21:06:35.358Z,78.74
2019-01-22T21:09:04.864Z,78.94
2019-01-22T21:11:32.216Z,79.09
2019-01-22T21:13:59.683Z,78.63
2019-01-22T21:16:27.065Z,78.49
2019-01-22T21:18:54.594Z,78.67
2019-01-22T21:21:22.015Z,78.99
2019-01-22T21:23:49.567Z,78.92
2019-01-22T21:26:17.055Z,79.01
2019-01-22T21:28:44.484Z,79.26
2019-01-22T21:31:11.887Z,79.49
2019-01-22T21:33:39.311Z,79.67
2019-01-22T21:36:06.772Z,79.70
2019-01-22T21:38:34.196Z,79.87
2019-01-22T21:41:01.683Z,80.03
2019-01-22T21:43:29.054Z,80.30
2019-01-22T21:45:56.765Z,80.51
2019-01-22T21:48:24.199Z,80.58
2019-01-22T21:50:51.694Z,80.36
2019-01-22T21:53:19.199Z,80.32
2019-01-22T21:55:46.681Z,80.51
2019-01-22T21:58:14.168Z,80.66
2019-01-22T22:00:41.641Z,80.11
2019-01-22T22:03:09.023Z,79.60
2019-01-22T22:05:36.439Z,78.85
2019-01-22T22:08:05.261Z,78.38
2019-01-22T22:10:32.754Z,78.51
2019-01-22T22:13:00.123Z,78.65
2019-01-22T22:15:27.513Z,78.70
2019-01-22T22:17:54.961Z,78.59
2019-01-22T22:20:22.407Z,78.77
2019-01-22T22:22:49.781Z,78.90
2019-01-22T22:25:18.027Z,78.79
2019-01-22T22:27:45.450Z,78.50
2019-01-22T22:30:14.435Z,78.24
2019-01-22T22:32:42.162Z,78.19
2019-01-22T22:35:11.195Z,78.95
2019-01-22T22:37:38.647Z,79.21
2019-01-22T22:40:06.838Z,79.25
2019-01-22T22:42:34.263Z,79.61
2019-01-22T22:45:01.642Z,79.67
2019-01-22T22:47:29.019Z,79.94
2019-01-22T22:49:56.628Z,80.21
2019-01-22T22:52:24.006Z,79.81
2019-01-22T22:54:51.461Z,79.33
2019-01-22T22:57:18.863Z,78.92
2019-01-22T22:59:46.244Z,79.21
2019-01-22T23:02:13.703Z,78.86
2019-01-22T23:04:41.068Z,78.73
2019-01-22T23:07:08.452Z,78.07
2019-01-22T23:09:35.842Z,78.17
2019-01-22T23:12:03.630Z,78.41
2019-01-22T23:14:31.012Z,78.48
2019-01-22T23:16:58.399Z,78.32
2019-01-22T23:19:25.765Z,78.09
2019-01-22T23:21:53.225Z,78.05
2019-01-22T23:24:20.598Z,77.94
2019-01-22T23:26:47.958Z,77.63
2019-01-22T23:29:15.303Z,77.16
2019-01-22T23:31:42.723Z,76.88
2019-01-22T23:34:10.099Z,76.72
2019-01-22T23:36:37.487Z,76.88
2019-01-22T23:39:05.303Z,76.93
2019-01-22T23:41:32.662Z,76.85
2019-01-22T23:44:00.024Z,76.97
2019-01-22T23:46:27.462Z,77.22
2019-01-22T23:48:54.850Z,77.39
2019-01-22T23:51:22.197Z,77.63
2019-01-22T23:53:49.598Z,77.69
2019-01-22T23:56:16.959Z,78.01
2019-01-22T23:58:44.299Z,79.23
